createdAt,value
2017-09-14T00:02:18.243Z,20.53
2017-09-14T00:04:45.693Z,21.97
2017-09-14T00:07:13.922Z,23.03
2017-09-14T00:09:41.448Z,16.30
2017-09-14T00:12:08.948Z,16.97
2017-09-14T00:14:36.410Z,15.80
2017-09-14T00:17:03.856Z,21.93
2017-09-14T00:19:31.320Z,32.20
2017-09-14T00:21:58.769Z,15.07
2017-09-14T00:24:26.249Z,20.40
2017-09-14T00:26:53.738Z,15.77
2017-09-14T00:29:22.042Z,15.47
2017-09-14T00:31:49.596Z,17.60
2017-09-14T00:34:17.083Z,13.07
2017-09-14T00:36:44.562Z,11.40
2017-09-14T00:39:12.041Z,11.50
2017-09-14T00:41:40.311Z,21.20
2017-09-14T00:44:08.529Z,17.67
2017-09-14T00:46:35.985Z,15.10
2017-09-14T00:49:03.465Z,12.57
2017-09-14T00:51:30.945Z,17.20
2017-09-14T00:53:58.455Z,32.27
2017-09-14T00:56:25.937Z,14.83
2017-09-14T00:58:53.436Z,16.43
2017-09-14T01:01:20.922Z,14.17
2017-09-14T01:03:48.386Z,10.07
2017-09-14T01:06:15.881Z,19.13
2017-09-14T01:08:43.384Z,19.70
2017-09-14T01:11:11.697Z,20.27
2017-09-14T01:13:39.152Z,17.43
2017-09-14T01:16:06.634Z,17.60
2017-09-14T01:18:34.109Z,20.87
2017-09-14T01:21:01.570Z,15.70
2017-09-14T01:23:29.070Z,15.53
2017-09-14T01:25:56.556Z,30.37
2017-09-14T01:28:24.049Z,17.17
2017-09-14T01:30:51.497Z,26.27
2017-09-14T01:33:18.995Z,24.40
2017-09-14T01:35:46.448Z,27.43
2017-09-14T01:38:13.924Z,23.03
2017-09-14T01:40:41.398Z,20.60
2017-09-14T01:43:08.876Z,30.50
2017-09-14T01:45:37.126Z,28.10
2017-09-14T01:48:04.643Z,20.40
2017-09-14T01:50:32.100Z,20.60
2017-09-14T01:52:59.557Z,29.50
2017-09-14T01:55:27.061Z,16.33
2017-09-14T01:57:54.529Z,20.20
2017-09-14T02:00:22.016Z,18.67
2017-09-14T02:02:49.516Z,18.37
2017-09-14T02:05:16.974Z,10.90
2017-09-14T02:07:44.421Z,19.43
2017-09-14T02:10:13.589Z,16.03
2017-09-14T02:12:41.037Z,20.60
2017-09-14T02:15:09.287Z,30.67
2017-09-14T02:17:36.741Z,11.90
2017-09-14T02:20:04.485Z,17.83
2017-09-14T02:22:32.367Z,21.80
2017-09-14T02:25:00.158Z,15.53
2017-09-14T02:27:30.173Z,17.60
2017-09-14T02:29:57.904Z,15.97
2017-09-14T02:32:25.589Z,23.33
2017-09-14T02:34:53.033Z,26.93
2017-09-14T02:37:20.509Z,18.33
2017-09-14T02:39:47.997Z,23.97
2017-09-14T02:42:15.459Z,17.50
2017-09-14T02:44:42.905Z,24.00
2017-09-14T02:47:10.382Z,31.23
2017-09-14T02:49:37.845Z,26.57
2017-09-14T02:52:06.065Z,27.73
2017-09-14T02:54:33.538Z,15.33
2017-09-14T02:57:00.986Z,20.47
2017-09-14T02:59:28.479Z,10.30
2017-09-14T03:01:55.940Z,23.33
2017-09-14T03:04:23.437Z,26.37
2017-09-14T03:06:50.902Z,34.63
2017-09-14T03:09:18.353Z,25.20
2017-09-14T03:11:45.835Z,22.13
2017-09-14T03:14:13.364Z,34.90
2017-09-14T03:16:40.846Z,30.23
2017-09-14T03:19:08.365Z,34.10
2017-09-14T03:21:35.853Z,28.53
2017-09-14T03:24:03.306Z,24.53
2017-09-14T03:26:31.626Z,22.13
2017-09-14T03:28:59.118Z,25.53
2017-09-14T03:31:26.579Z,29.53
2017-09-14T03:33:54.034Z,42.13
2017-09-14T03:36:21.521Z,20.70
2017-09-14T03:38:49.045Z,20.80
2017-09-14T03:41:16.510Z,16.70
2017-09-14T03:43:43.962Z,14.83
2017-09-14T03:46:11.469Z,21.10
2017-09-14T03:48:38.920Z,20.37
2017-09-14T03:51:06.381Z,23.17
2017-09-14T03:53:34.635Z,15.70
2017-09-14T03:56:02.866Z,16.80
2017-09-14T03:58:30.321Z,14.03
2017-09-14T04:00:57.791Z,28.53
2017-09-14T04:03:25.262Z,14.83
2017-09-14T04:05:52.755Z,33.00
2017-09-14T04:08:20.209Z,13.90
2017-09-14T04:10:47.678Z,16.83
2017-09-14T04:13:15.335Z,17.97
2017-09-14T04:15:42.832Z,17.83
2017-09-14T04:18:10.309Z,32.70
2017-09-14T04:20:37.805Z,22.10
2017-09-14T04:23:05.266Z,15.50
2017-09-14T04:25:32.720Z,21.83
2017-09-14T04:28:00.194Z,13.40
2017-09-14T04:30:27.672Z,18.23
2017-09-14T04:32:55.121Z,13.93
2017-09-14T04:35:22.589Z,13.17
2017-09-14T04:37:50.066Z,28.57
2017-09-14T04:40:18.374Z,14.20
2017-09-14T04:42:46.629Z,23.20
2017-09-14T04:45:15.633Z,17.52
2017-09-14T04:47:43.085Z,22.00
2017-09-14T04:50:10.543Z,18.50
2017-09-14T04:52:38.026Z,19.03
2017-09-14T04:55:05.537Z,19.20
2017-09-14T04:57:32.981Z,19.03
2017-09-14T05:00:00.457Z,15.63
2017-09-14T05:02:27.916Z,18.33
2017-09-14T05:04:55.578Z,23.83
2017-09-14T05:07:23.081Z,39.23
2017-09-14T05:09:51.362Z,19.73
2017-09-14T05:12:19.581Z,16.27
2017-09-14T05:14:47.072Z,20.30
2017-09-14T05:17:14.556Z,22.33
2017-09-14T05:19:42.079Z,17.87
2017-09-14T05:22:09.553Z,13.00
2017-09-14T05:24:37.086Z,16.10
2017-09-14T05:27:04.570Z,15.77
2017-09-14T05:29:32.029Z,11.73
2017-09-14T05:31:59.489Z,11.57
2017-09-14T05:34:26.970Z,5.90
2017-09-14T05:36:54.422Z,4.07
2017-09-14T05:39:22.682Z,10.60
2017-09-14T05:41:50.150Z,8.80
2017-09-14T05:44:17.649Z,9.73
2017-09-14T05:46:45.107Z,14.50
2017-09-14T05:49:12.566Z,12.67
2017-09-14T05:51:40.175Z,16.73
2017-09-14T05:54:07.617Z,9.20
2017-09-14T05:56:35.096Z,8.40
2017-09-14T05:59:03.315Z,14.03
2017-09-14T06:01:30.773Z,9.57
2017-09-14T06:03:58.297Z,8.23
2017-09-14T06:06:25.740Z,6.67
2017-09-14T06:08:53.190Z,7.70
2017-09-14T06:11:20.679Z,7.93
2017-09-14T06:13:48.894Z,6.10
2017-09-14T06:16:16.357Z,4.97
2017-09-14T06:21:17.629Z,7.20
2017-09-14T06:23:45.101Z,5.93
2017-09-14T06:26:12.549Z,7.67
2017-09-14T06:28:40.041Z,16.30
2017-09-14T06:31:07.501Z,10.13
2017-09-14T06:33:34.962Z,7.23
2017-09-14T06:36:02.450Z,12.20
2017-09-14T06:38:29.971Z,5.87
2017-09-14T06:40:58.213Z,6.40
2017-09-14T06:43:26.470Z,11.50
2017-09-14T06:45:53.949Z,6.43
2017-09-14T06:48:21.434Z,13.60
2017-09-14T06:50:48.926Z,10.33
2017-09-14T06:53:16.377Z,11.23
2017-09-14T06:55:43.826Z,6.40
2017-09-14T06:58:12.053Z,13.10
2017-09-14T07:00:39.522Z,7.83
2017-09-14T07:03:06.998Z,6.10
2017-09-14T07:05:34.458Z,8.20
2017-09-14T07:08:01.950Z,4.47
2017-09-14T07:10:29.400Z,3.90
2017-09-14T07:12:56.885Z,2.30
2017-09-14T07:15:24.343Z,1.23
2017-09-14T07:17:51.818Z,5.90
2017-09-14T07:20:20.089Z,2.40
2017-09-14T07:22:47.537Z,1.97
2017-09-14T07:25:15.762Z,2.40
2017-09-14T07:27:43.245Z,3.33
2017-09-14T07:30:10.730Z,6.13
2017-09-14T07:32:38.225Z,3.30
2017-09-14T07:35:05.851Z,3.30
2017-09-14T07:37:33.311Z,3.43
2017-09-14T07:40:00.842Z,4.30
2017-09-14T07:42:28.301Z,4.00
2017-09-14T07:44:55.758Z,1.87
2017-09-14T07:47:23.250Z,2.63
2017-09-14T07:49:50.705Z,5.60
2017-09-14T07:52:18.158Z,4.50
2017-09-14T07:54:45.639Z,3.47
2017-09-14T07:57:13.117Z,1.70
2017-09-14T07:59:40.589Z,1.87
2017-09-14T08:02:08.046Z,3.10
2017-09-14T08:04:35.536Z,3.20
2017-09-14T08:07:02.981Z,2.03
2017-09-14T08:09:30.493Z,2.70
2017-09-14T08:11:57.949Z,2.63
2017-09-14T08:14:25.405Z,1.30
2017-09-14T08:16:52.883Z,1.20
2017-09-14T08:19:20.333Z,7.60
2017-09-14T08:21:47.829Z,2.00
2017-09-14T08:24:15.305Z,5.60
2017-09-14T08:26:42.762Z,0.97
2017-09-14T08:29:10.265Z,1.93
2017-09-14T08:31:37.725Z,9.13
2017-09-14T08:34:05.170Z,1.30
2017-09-14T08:36:32.641Z,4.27
2017-09-14T08:39:00.094Z,4.90
2017-09-14T08:41:27.588Z,2.33
2017-09-14T08:43:55.038Z,1.80
2017-09-14T08:46:22.514Z,3.60
2017-09-14T08:48:49.974Z,3.10
2017-09-14T08:51:17.465Z,5.17
2017-09-14T08:53:44.914Z,4.93
2017-09-14T08:56:12.382Z,3.10
2017-09-14T08:58:39.915Z,2.20
2017-09-14T09:01:07.356Z,3.60
2017-09-14T09:03:34.856Z,2.00
2017-09-14T09:06:02.306Z,3.17
2017-09-14T09:08:29.757Z,5.50
2017-09-14T09:10:57.229Z,8.83
2017-09-14T09:13:24.709Z,6.50
2017-09-14T09:15:52.163Z,3.80
2017-09-14T09:18:19.626Z,4.10
2017-09-14T09:20:47.106Z,4.30
2017-09-14T09:23:15.355Z,5.53
2017-09-14T09:25:42.975Z,4.77
2017-09-14T09:28:10.447Z,3.70
2017-09-14T09:30:37.975Z,2.40
2017-09-14T09:33:05.468Z,3.50
2017-09-14T09:35:32.923Z,9.47
2017-09-14T09:38:00.433Z,2.20
2017-09-14T09:40:28.658Z,7.90
2017-09-14T09:42:56.106Z,7.43
2017-09-14T09:45:23.581Z,5.17
2017-09-14T09:47:51.033Z,6.03
2017-09-14T09:50:18.538Z,2.70
2017-09-14T09:52:46.167Z,6.93
2017-09-14T09:55:13.671Z,5.10
2017-09-14T09:57:41.888Z,5.53
2017-09-14T10:00:09.349Z,2.17
2017-09-14T10:02:36.810Z,6.77
2017-09-14T10:05:04.281Z,5.07
2017-09-14T10:07:31.757Z,5.50
2017-09-14T10:09:59.210Z,2.13
2017-09-14T10:12:26.698Z,7.33
2017-09-14T10:14:54.930Z,8.67
2017-09-14T10:17:22.372Z,2.90
2017-09-14T10:19:49.897Z,2.83
2017-09-14T10:22:18.145Z,8.30
2017-09-14T10:24:45.589Z,6.00
2017-09-14T10:27:13.074Z,10.57
2017-09-14T10:29:40.545Z,7.40
2017-09-14T10:32:08.814Z,5.23
2017-09-14T10:34:37.050Z,4.70
2017-09-14T10:37:04.533Z,9.63
2017-09-14T10:39:32.062Z,10.73
2017-09-14T10:41:59.553Z,5.00
2017-09-14T10:44:27.009Z,4.93
2017-09-14T10:46:54.498Z,9.37
2017-09-14T10:49:22.034Z,12.63
2017-09-14T10:51:49.501Z,4.37
2017-09-14T10:54:17.724Z,3.77
2017-09-14T10:56:45.207Z,6.03
2017-09-14T10:59:12.659Z,3.60
2017-09-14T11:01:40.110Z,7.50
2017-09-14T11:04:08.362Z,7.03
2017-09-14T11:06:35.810Z,2.70
2017-09-14T11:09:03.262Z,6.40
2017-09-14T11:11:30.765Z,11.33
2017-09-14T11:13:58.213Z,5.70
2017-09-14T11:16:25.694Z,6.27
2017-09-14T11:18:53.142Z,7.57
2017-09-14T11:21:20.627Z,2.00
2017-09-14T11:23:48.069Z,3.47
2017-09-14T11:26:15.539Z,6.70
2017-09-14T11:28:43.018Z,3.77
2017-09-14T11:31:10.474Z,4.80
2017-09-14T11:33:37.922Z,3.37
2017-09-14T11:36:05.406Z,5.80
2017-09-14T11:38:32.850Z,4.13
2017-09-14T11:41:00.338Z,5.63
2017-09-14T11:43:27.806Z,3.20
2017-09-14T11:45:55.273Z,4.73
2017-09-14T11:48:23.601Z,2.70
2017-09-14T11:50:51.822Z,4.40
2017-09-14T11:53:19.308Z,8.23
2017-09-14T11:55:46.799Z,2.53
2017-09-14T11:58:15.038Z,4.37
2017-09-14T12:00:42.542Z,4.57
2017-09-14T12:03:10.030Z,1.80
2017-09-14T12:05:37.477Z,7.30
2017-09-14T12:08:04.957Z,3.80
2017-09-14T12:10:32.409Z,3.03
2017-09-14T12:12:59.859Z,2.90
2017-09-14T12:15:27.345Z,5.30
2017-09-14T12:17:54.795Z,1.00
2017-09-14T12:20:22.254Z,2.67
2017-09-14T12:22:49.895Z,4.60
2017-09-14T12:25:18.290Z,3.43
2017-09-14T12:27:45.732Z,5.77
2017-09-14T12:30:13.210Z,4.40
2017-09-14T12:32:40.676Z,6.40
2017-09-14T12:35:08.146Z,2.00
2017-09-14T12:37:35.674Z,4.77
2017-09-14T12:40:03.139Z,2.43
2017-09-14T12:42:30.622Z,6.27
2017-09-14T12:44:58.075Z,3.53
2017-09-14T12:47:25.538Z,2.40
2017-09-14T12:49:53.050Z,1.60
2017-09-14T12:52:20.538Z,6.30
2017-09-14T12:54:48.001Z,4.17
2017-09-14T12:57:15.470Z,1.53
2017-09-14T12:59:42.966Z,1.20
2017-09-14T13:02:10.421Z,3.40
2017-09-14T13:04:37.870Z,1.70
2017-09-14T13:07:06.106Z,7.40
2017-09-14T13:09:33.643Z,2.73
2017-09-14T13:12:01.121Z,4.57
2017-09-14T13:14:28.574Z,1.10
2017-09-14T13:16:56.049Z,1.20
2017-09-14T13:19:23.509Z,4.57
2017-09-14T13:21:50.991Z,3.03
2017-09-14T13:24:18.482Z,0.90
2017-09-14T13:26:45.941Z,1.83
2017-09-14T13:29:13.504Z,2.13
2017-09-14T13:31:40.996Z,3.17
2017-09-14T13:34:08.487Z,3.43
2017-09-14T13:36:36.738Z,2.23
2017-09-14T13:39:04.222Z,1.73
2017-09-14T13:41:32.438Z,2.03
2017-09-14T13:43:59.992Z,7.20
2017-09-14T13:46:27.454Z,1.30
2017-09-14T13:48:54.958Z,1.30
2017-09-14T13:51:22.408Z,1.00
2017-09-14T13:53:49.878Z,3.10
2017-09-14T13:56:17.398Z,3.03
2017-09-14T13:58:44.838Z,2.70
2017-09-14T14:01:12.301Z,11.30
2017-09-14T14:03:39.763Z,2.43
2017-09-14T14:06:07.213Z,0.90
2017-09-14T14:08:34.705Z,2.10
2017-09-14T14:11:02.173Z,1.13
2017-09-14T14:13:29.617Z,2.50
2017-09-14T14:15:57.090Z,1.20
2017-09-14T14:18:24.565Z,2.50
2017-09-14T14:20:52.785Z,2.60
2017-09-14T14:23:20.267Z,2.93
2017-09-14T14:25:47.720Z,3.40
2017-09-14T14:28:15.954Z,2.30
2017-09-14T14:30:43.438Z,7.43
2017-09-14T14:33:10.890Z,2.50
2017-09-14T14:35:38.365Z,9.53
2017-09-14T14:38:06.626Z,2.23
2017-09-14T14:40:34.082Z,1.40
2017-09-14T14:43:01.542Z,0.70
2017-09-14T14:45:29.014Z,2.03
2017-09-14T14:47:56.491Z,0.77
2017-09-14T14:50:23.938Z,1.73
2017-09-14T14:52:51.410Z,3.37
2017-09-14T14:55:19.434Z,1.20
2017-09-14T14:57:46.886Z,6.00
2017-09-14T15:00:14.462Z,1.37
2017-09-14T15:02:41.919Z,4.93
2017-09-14T15:05:09.374Z,2.13
2017-09-14T15:07:36.874Z,1.43
2017-09-14T15:10:04.329Z,2.80
2017-09-14T15:12:31.781Z,5.20
2017-09-14T15:14:59.246Z,7.20
2017-09-14T15:17:26.699Z,5.77
2017-09-14T15:19:54.167Z,4.80
2017-09-14T15:22:21.679Z,4.43
2017-09-14T15:24:49.201Z,2.80
2017-09-14T15:27:17.443Z,5.53
2017-09-14T15:29:44.984Z,5.73
2017-09-14T15:32:12.433Z,3.93
2017-09-14T15:34:39.918Z,5.73
2017-09-14T15:37:21.982Z,6.17
2017-09-14T15:39:55.064Z,2.97
2017-09-14T15:42:29.037Z,9.00
2017-09-14T15:45:02.167Z,3.40
2017-09-14T15:47:29.637Z,4.17
2017-09-14T15:50:02.837Z,21.83
2017-09-14T15:52:30.291Z,6.07
2017-09-14T15:54:57.766Z,7.67
2017-09-14T15:57:25.226Z,5.67
2017-09-14T15:59:52.706Z,4.50
2017-09-14T16:02:20.182Z,6.70
2017-09-14T16:04:47.652Z,8.90
2017-09-14T16:07:15.115Z,7.37
2017-09-14T16:09:42.667Z,9.47
2017-09-14T16:12:10.910Z,9.27
2017-09-14T16:14:38.401Z,11.90
2017-09-14T16:17:06.664Z,14.47
2017-09-14T16:19:34.151Z,9.43
2017-09-14T16:22:02.373Z,12.10
2017-09-14T16:24:29.826Z,12.07
2017-09-14T16:26:58.461Z,5.50
2017-09-14T16:29:28.960Z,6.10
2017-09-14T16:31:57.414Z,12.10
2017-09-14T16:34:24.982Z,14.13
2017-09-14T16:36:54.489Z,7.67
2017-09-14T16:39:23.051Z,5.37
2017-09-14T16:41:51.156Z,17.47
2017-09-14T16:44:19.211Z,23.60
2017-09-14T16:46:48.643Z,22.53
2017-09-14T16:49:18.014Z,39.10
2017-09-14T16:51:47.255Z,7.00
2017-09-14T16:54:15.282Z,9.43
2017-09-14T16:56:43.190Z,3.03
2017-09-14T16:59:12.069Z,11.50
2017-09-14T17:01:39.829Z,9.10
2017-09-14T17:04:08.770Z,23.83
2017-09-14T17:06:36.762Z,8.00
2017-09-14T17:09:05.277Z,14.13
2017-09-14T17:11:32.773Z,13.87
2017-09-14T17:14:01.448Z,10.37
2017-09-14T17:16:29.106Z,13.77
2017-09-14T17:18:56.790Z,9.90
2017-09-14T17:21:25.010Z,6.53
2017-09-14T17:23:52.697Z,8.87
2017-09-14T17:26:20.532Z,8.20
2017-09-14T17:28:48.799Z,6.30
2017-09-14T17:31:17.437Z,2.27
2017-09-14T17:33:44.970Z,4.60
2017-09-14T17:36:12.457Z,8.67
2017-09-14T17:38:39.964Z,6.17
2017-09-14T17:41:07.456Z,6.93
2017-09-14T17:43:34.957Z,7.30
2017-09-14T17:46:03.177Z,10.20
2017-09-14T17:48:30.629Z,4.70
2017-09-14T17:50:58.125Z,3.90
2017-09-14T17:53:25.572Z,5.27
2017-09-14T17:55:53.041Z,7.13
2017-09-14T17:58:20.554Z,6.20
2017-09-14T18:00:47.997Z,6.60
2017-09-14T18:03:15.483Z,8.80
2017-09-14T18:05:42.976Z,3.77
2017-09-14T18:08:10.450Z,3.40
2017-09-14T18:10:38.702Z,6.10
2017-09-14T18:13:07.014Z,7.93
2017-09-14T18:15:35.274Z,5.90
2017-09-14T18:18:02.786Z,12.77
2017-09-14T18:20:30.336Z,12.03
2017-09-14T18:22:57.914Z,8.40
2017-09-14T18:25:25.376Z,10.10
2017-09-14T18:27:52.817Z,20.07
2017-09-14T18:30:21.899Z,14.35
2017-09-14T18:32:49.381Z,8.80
2017-09-14T18:35:16.862Z,9.40
2017-09-14T18:37:44.330Z,12.90
2017-09-14T18:40:11.780Z,5.20
2017-09-14T18:42:39.270Z,8.80
2017-09-14T18:45:07.492Z,6.07
2017-09-14T18:47:34.941Z,7.47
2017-09-14T18:50:02.447Z,17.07
2017-09-14T18:52:29.902Z,13.30
2017-09-14T18:54:57.386Z,2.80
2017-09-14T18:57:24.866Z,5.70
2017-09-14T18:59:52.425Z,10.27
2017-09-14T19:02:19.995Z,13.43
2017-09-14T19:04:47.529Z,12.23
2017-09-14T19:07:15.000Z,5.00
2017-09-14T19:09:42.450Z,7.70
2017-09-14T19:12:09.937Z,10.10
2017-09-14T19:14:37.420Z,6.97
2017-09-14T19:17:04.878Z,11.70
2017-09-14T19:19:32.402Z,11.47
2017-09-14T19:21:59.856Z,12.53
2017-09-14T19:24:27.302Z,9.50
2017-09-14T19:26:54.973Z,17.37
2017-09-14T19:29:22.934Z,10.77
2017-09-14T19:31:50.408Z,16.00
2017-09-14T19:34:17.958Z,23.70
2017-09-14T19:36:45.546Z,14.80
2017-09-14T19:39:13.038Z,15.57
2017-09-14T19:41:40.698Z,8.97
2017-09-14T19:44:08.210Z,7.77
2017-09-14T19:46:35.679Z,9.87
2017-09-14T19:49:03.134Z,14.50
2017-09-14T19:51:30.597Z,15.20
2017-09-14T19:53:58.309Z,8.23
2017-09-14T19:56:26.624Z,12.63
2017-09-14T19:58:54.146Z,25.10
2017-09-14T20:01:22.397Z,19.50
2017-09-14T20:03:49.865Z,14.37
2017-09-14T20:06:17.373Z,20.03
2017-09-14T20:08:45.699Z,14.70
2017-09-14T20:11:13.242Z,9.20
2017-09-14T20:13:40.713Z,7.93
2017-09-14T20:16:08.166Z,9.47
2017-09-14T20:18:35.637Z,18.73
2017-09-14T20:21:03.125Z,29.17
2017-09-14T20:23:30.588Z,6.10
2017-09-14T20:25:58.058Z,13.07
2017-09-14T20:28:25.613Z,11.33
2017-09-14T20:30:53.111Z,15.53
2017-09-14T20:33:20.575Z,13.00
2017-09-14T20:35:48.065Z,20.53
2017-09-14T20:38:16.289Z,20.60
2017-09-14T20:40:43.766Z,25.57
2017-09-14T20:43:11.597Z,21.10
2017-09-14T20:45:39.051Z,16.30
2017-09-14T20:48:06.510Z,8.63
2017-09-14T20:50:34.168Z,10.50
2017-09-14T20:53:01.647Z,14.93
2017-09-14T20:55:29.106Z,21.83
2017-09-14T20:57:56.570Z,11.80
2017-09-14T21:00:24.049Z,14.90
2017-09-14T21:02:51.539Z,19.20
2017-09-14T21:05:19.772Z,13.77
2017-09-14T21:07:47.252Z,15.63
2017-09-14T21:10:14.739Z,25.77
2017-09-14T21:12:42.959Z,26.83
2017-09-14T21:15:10.442Z,17.27
2017-09-14T21:17:37.914Z,24.87
2017-09-14T21:20:05.432Z,17.77
2017-09-14T21:22:32.982Z,11.50
2017-09-14T21:25:00.433Z,25.60
2017-09-14T21:27:27.908Z,13.93
2017-09-14T21:29:55.407Z,11.67
2017-09-14T21:32:22.854Z,8.73
2017-09-14T21:34:50.318Z,11.67
2017-09-14T21:37:17.809Z,11.63
2017-09-14T21:39:46.021Z,12.00
2017-09-14T21:42:13.485Z,22.90
2017-09-14T21:44:41.757Z,14.57
2017-09-14T21:47:09.210Z,8.77
2017-09-14T21:49:36.722Z,5.67
2017-09-14T21:52:05.647Z,13.03
2017-09-14T21:54:33.135Z,14.47
2017-09-14T21:57:00.619Z,20.10
2017-09-14T21:59:28.099Z,19.23
2017-09-14T22:01:55.557Z,12.80
2017-09-14T22:04:23.002Z,8.93
2017-09-14T22:06:50.494Z,22.37
2017-09-14T22:09:17.955Z,18.60
2017-09-14T22:11:45.441Z,12.90
2017-09-14T22:14:12.917Z,9.67
2017-09-14T22:16:40.399Z,24.00
2017-09-14T22:19:08.673Z,15.30
2017-09-14T22:21:36.944Z,17.23
2017-09-14T22:24:04.422Z,28.13
2017-09-14T22:26:32.653Z,24.63
2017-09-14T22:29:00.162Z,21.53
2017-09-14T22:31:27.673Z,12.60
2017-09-14T22:33:55.144Z,17.87
2017-09-14T22:36:22.602Z,11.43
2017-09-14T22:38:50.085Z,24.47
2017-09-14T22:41:17.556Z,23.67
2017-09-14T22:43:45.782Z,18.10
2017-09-14T22:46:13.277Z,31.50
2017-09-14T22:48:40.843Z,21.60
2017-09-14T22:51:09.058Z,49.57
2017-09-14T22:53:36.558Z,28.97
2017-09-14T22:56:04.029Z,27.40
2017-09-14T22:58:32.265Z,16.50
2017-09-14T23:00:59.725Z,17.30
2017-09-14T23:03:27.201Z,30.90
2017-09-14T23:05:54.689Z,19.13
2017-09-14T23:08:22.909Z,22.53
2017-09-14T23:10:50.384Z,19.13
2017-09-14T23:13:17.845Z,20.73
2017-09-14T23:15:45.305Z,26.67
2017-09-14T23:18:12.789Z,27.87
2017-09-14T23:20:41.014Z,20.07
2017-09-14T23:23:08.469Z,31.53
2017-09-14T23:25:35.949Z,41.10
2017-09-14T23:28:03.433Z,31.17
2017-09-14T23:30:30.886Z,25.10
2017-09-14T23:32:58.361Z,27.20
2017-09-14T23:35:26.573Z,27.07
2017-09-14T23:37:54.046Z,23.93
2017-09-14T23:40:21.566Z,26.43
2017-09-14T23:42:49.046Z,28.63
2017-09-14T23:45:16.558Z,31.30
2017-09-14T23:47:44.042Z,29.73
2017-09-14T23:50:11.489Z,33.67
2017-09-14T23:52:39.721Z,37.90
2017-09-14T23:55:07.202Z,41.50
2017-09-14T23:57:34.653Z,59.30
